sensor_id;sensor_type;location;lat;lon;timestamp;P1;durP1;ratioP1;P2;durP2;ratioP2
81298;SDS011;70766;53.170;18.160;2023-07-29T00:02:24;9.20;;;5.90;;
81298;SDS011;70766;53.170;18.160;2023-07-29T00:04:52;11.30;;;6.90;;
81298;SDS011;70766;53.170;18.160;2023-07-29T00:07:20;10.30;;;6.80;;
81298;SDS011;70766;53.170;18.160;2023-07-29T00:09:49;11.10;;;7.30;;
81298;SDS011;70766;53.170;18.160;2023-07-29T00:12:17;12.10;;;7.40;;
81298;SDS011;70766;53.170;18.160;2023-07-29T00:14:45;11.00;;;7.70;;
81298;SDS011;70766;53.170;18.160;2023-07-29T00:17:13;10.90;;;6.70;;
81298;SDS011;70766;53.170;18.160;2023-07-29T00:19:44;11.00;;;7.20;;
81298;SDS011;70766;53.170;18.160;2023-07-29T00:22:13;9.10;;;6.60;;
81298;SDS011;70766;53.170;18.160;2023-07-29T00:24:42;11.90;;;7.50;;
81298;SDS011;70766;53.170;18.160;2023-07-29T00:27:10;11.10;;;7.50;;
81298;SDS011;70766;53.170;18.160;2023-07-29T00:29:38;12.40;;;6.60;;
81298;SDS011;70766;53.170;18.160;2023-07-29T00:32:06;11.70;;;7.10;;
81298;SDS011;70766;53.170;18.160;2023-07-29T00:34:34;11.20;;;7.40;;
81298;SDS011;70766;53.170;18.160;2023-07-29T00:37:04;10.50;;;6.70;;
81298;SDS011;70766;53.170;18.160;2023-07-29T00:39:33;10.50;;;6.60;;
81298;SDS011;70766;53.170;18.160;2023-07-29T00:42:02;10.00;;;6.80;;
81298;SDS011;70766;53.170;18.160;2023-07-29T00:44:31;10.60;;;6.90;;
81298;SDS011;70766;53.170;18.160;2023-07-29T00:47:02;11.30;;;7.10;;
81298;SDS011;70766;53.170;18.160;2023-07-29T00:49:33;10.80;;;6.10;;
81298;SDS011;70766;53.170;18.160;2023-07-29T00:52:01;12.20;;;6.60;;
81298;SDS011;70766;53.170;18.160;2023-07-29T00:54:29;11.40;;;6.80;;
81298;SDS011;70766;53.170;18.160;2023-07-29T00:56:57;13.50;;;7.20;;
81298;SDS011;70766;53.170;18.160;2023-07-29T00:59:26;12.50;;;7.40;;
81298;SDS011;70766;53.170;18.160;2023-07-29T01:01:58;12.80;;;7.60;;
81298;SDS011;70766;53.170;18.160;2023-07-29T01:04:26;11.70;;;7.70;;
81298;SDS011;70766;53.170;18.160;2023-07-29T01:06:58;11.40;;;6.80;;
81298;SDS011;70766;53.170;18.160;2023-07-29T01:14:59;13.10;;;7.70;;
81298;SDS011;70766;53.170;18.160;2023-07-29T01:17:39;12.50;;;6.60;;
81298;SDS011;70766;53.170;18.160;2023-07-29T01:20:16;12.40;;;6.80;;
81298;SDS011;70766;53.170;18.160;2023-07-29T01:22:48;14.70;;;7.60;;
81298;SDS011;70766;53.170;18.160;2023-07-29T01:25:16;13.50;;;7.20;;
81298;SDS011;70766;53.170;18.160;2023-07-29T01:27:45;14.00;;;8.60;;
81298;SDS011;70766;53.170;18.160;2023-07-29T01:30:15;14.40;;;9.00;;
81298;SDS011;70766;53.170;18.160;2023-07-29T01:37:55;11.70;;;6.90;;
81298;SDS011;70766;53.170;18.160;2023-07-29T01:40:28;13.80;;;8.30;;
81298;SDS011;70766;53.170;18.160;2023-07-29T01:42:57;14.80;;;8.50;;
81298;SDS011;70766;53.170;18.160;2023-07-29T01:45:25;15.40;;;7.90;;
81298;SDS011;70766;53.170;18.160;2023-07-29T01:47:53;13.50;;;7.20;;
81298;SDS011;70766;53.170;18.160;2023-07-29T01:50:21;12.50;;;8.00;;
81298;SDS011;70766;53.170;18.160;2023-07-29T01:52:50;12.60;;;7.00;;
81298;SDS011;70766;53.170;18.160;2023-07-29T01:55:18;11.80;;;7.40;;
81298;SDS011;70766;53.170;18.160;2023-07-29T01:57:46;15.30;;;7.90;;
81298;SDS011;70766;53.170;18.160;2023-07-29T02:00:15;12.10;;;7.30;;
81298;SDS011;70766;53.170;18.160;2023-07-29T02:02:44;11.10;;;6.50;;
81298;SDS011;70766;53.170;18.160;2023-07-29T02:05:13;11.50;;;6.70;;
81298;SDS011;70766;53.170;18.160;2023-07-29T02:07:41;10.40;;;6.10;;
81298;SDS011;70766;53.170;18.160;2023-07-29T02:10:09;11.30;;;6.50;;
81298;SDS011;70766;53.170;18.160;2023-07-29T02:12:37;12.40;;;7.50;;
81298;SDS011;70766;53.170;18.160;2023-07-29T02:15:05;13.10;;;7.20;;
81298;SDS011;70766;53.170;18.160;2023-07-29T02:17:34;12.80;;;7.90;;
81298;SDS011;70766;53.170;18.160;2023-07-29T02:20:03;13.30;;;8.10;;
81298;SDS011;70766;53.170;18.160;2023-07-29T02:22:31;12.10;;;7.70;;
81298;SDS011;70766;53.170;18.160;2023-07-29T02:24:59;13.50;;;7.50;;
81298;SDS011;70766;53.170;18.160;2023-07-29T02:27:28;13.40;;;7.50;;
81298;SDS011;70766;53.170;18.160;2023-07-29T02:29:56;13.60;;;7.30;;
81298;SDS011;70766;53.170;18.160;2023-07-29T02:32:24;12.20;;;7.20;;
81298;SDS011;70766;53.170;18.160;2023-07-29T02:34:53;13.40;;;7.50;;
81298;SDS011;70766;53.170;18.160;2023-07-29T02:37:21;13.50;;;7.70;;
81298;SDS011;70766;53.170;18.160;2023-07-29T02:39:49;12.90;;;7.70;;
81298;SDS011;70766;53.170;18.160;2023-07-29T02:42:17;15.70;;;8.90;;
81298;SDS011;70766;53.170;18.160;2023-07-29T02:44:45;11.00;;;6.70;;
81298;SDS011;70766;53.170;18.160;2023-07-29T02:47:13;8.90;;;5.60;;
81298;SDS011;70766;53.170;18.160;2023-07-29T02:49:41;11.90;;;7.00;;
81298;SDS011;70766;53.170;18.160;2023-07-29T02:52:09;10.70;;;6.70;;
81298;SDS011;70766;53.170;18.160;2023-07-29T02:54:37;10.30;;;7.10;;
81298;SDS011;70766;53.170;18.160;2023-07-29T02:57:05;13.70;;;7.80;;
81298;SDS011;70766;53.170;18.160;2023-07-29T02:59:33;11.70;;;7.30;;
81298;SDS011;70766;53.170;18.160;2023-07-29T03:02:02;14.20;;;7.90;;
81298;SDS011;70766;53.170;18.160;2023-07-29T03:04:30;13.60;;;8.00;;
81298;SDS011;70766;53.170;18.160;2023-07-29T03:07:01;13.10;;;7.30;;
81298;SDS011;70766;53.170;18.160;2023-07-29T03:09:29;12.30;;;7.10;;
81298;SDS011;70766;53.170;18.160;2023-07-29T03:11:57;10.40;;;6.60;;
81298;SDS011;70766;53.170;18.160;2023-07-29T03:14:26;14.50;;;8.00;;
81298;SDS011;70766;53.170;18.160;2023-07-29T03:16:55;11.30;;;7.40;;
81298;SDS011;70766;53.170;18.160;2023-07-29T03:19:23;11.90;;;7.90;;
81298;SDS011;70766;53.170;18.160;2023-07-29T03:21:52;11.90;;;7.00;;
81298;SDS011;70766;53.170;18.160;2023-07-29T03:24:20;11.10;;;7.10;;
81298;SDS011;70766;53.170;18.160;2023-07-29T03:26:48;10.80;;;7.10;;
81298;SDS011;70766;53.170;18.160;2023-07-29T03:29:16;12.70;;;7.30;;
81298;SDS011;70766;53.170;18.160;2023-07-29T03:31:44;11.30;;;6.80;;
81298;SDS011;70766;53.170;18.160;2023-07-29T03:34:13;10.90;;;7.00;;
81298;SDS011;70766;53.170;18.160;2023-07-29T03:36:42;11.60;;;7.20;;
81298;SDS011;70766;53.170;18.160;2023-07-29T03:39:10;11.50;;;6.90;;
81298;SDS011;70766;53.170;18.160;2023-07-29T03:41:39;12.70;;;7.90;;
81298;SDS011;70766;53.170;18.160;2023-07-29T03:44:07;11.60;;;6.70;;
81298;SDS011;70766;53.170;18.160;2023-07-29T03:46:35;10.60;;;5.70;;
81298;SDS011;70766;53.170;18.160;2023-07-29T03:49:05;12.10;;;6.30;;
81298;SDS011;70766;53.170;18.160;2023-07-29T03:51:33;7.70;;;5.40;;
81298;SDS011;70766;53.170;18.160;2023-07-29T03:54:02;9.40;;;5.90;;
81298;SDS011;70766;53.170;18.160;2023-07-29T03:56:30;11.20;;;6.00;;
81298;SDS011;70766;53.170;18.160;2023-07-29T03:59:02;8.10;;;4.90;;
81298;SDS011;70766;53.170;18.160;2023-07-29T04:01:31;9.30;;;5.90;;
81298;SDS011;70766;53.170;18.160;2023-07-29T04:03:59;9.80;;;6.30;;
81298;SDS011;70766;53.170;18.160;2023-07-29T04:06:28;9.00;;;5.90;;
81298;SDS011;70766;53.170;18.160;2023-07-29T04:08:56;8.00;;;5.60;;
81298;SDS011;70766;53.170;18.160;2023-07-29T04:11:24;9.00;;;5.70;;
81298;SDS011;70766;53.170;18.160;2023-07-29T04:13:53;9.60;;;6.40;;
81298;SDS011;70766;53.170;18.160;2023-07-29T04:16:21;9.90;;;6.60;;
81298;SDS011;70766;53.170;18.160;2023-07-29T04:18:52;10.80;;;5.80;;
81298;SDS011;70766;53.170;18.160;2023-07-29T04:21:20;12.50;;;6.50;;
81298;SDS011;70766;53.170;18.160;2023-07-29T04:23:48;10.60;;;6.40;;
81298;SDS011;70766;53.170;18.160;2023-07-29T04:26:16;10.10;;;7.20;;
81298;SDS011;70766;53.170;18.160;2023-07-29T04:28:44;11.40;;;7.20;;
81298;SDS011;70766;53.170;18.160;2023-07-29T04:31:12;9.90;;;6.90;;
81298;SDS011;70766;53.170;18.160;2023-07-29T04:33:40;10.30;;;7.30;;
81298;SDS011;70766;53.170;18.160;2023-07-29T04:36:08;16.20;;;8.50;;
81298;SDS011;70766;53.170;18.160;2023-07-29T04:38:37;15.80;;;8.20;;
81298;SDS011;70766;53.170;18.160;2023-07-29T04:41:05;12.30;;;8.10;;
81298;SDS011;70766;53.170;18.160;2023-07-29T04:43:35;13.40;;;9.80;;
81298;SDS011;70766;53.170;18.160;2023-07-29T04:46:05;14.80;;;10.90;;
81298;SDS011;70766;53.170;18.160;2023-07-29T04:48:36;14.50;;;10.70;;
81298;SDS011;70766;53.170;18.160;2023-07-29T04:51:05;13.40;;;9.70;;
81298;SDS011;70766;53.170;18.160;2023-07-29T04:53:33;14.10;;;10.40;;
81298;SDS011;70766;53.170;18.160;2023-07-29T04:56:02;13.20;;;9.40;;
81298;SDS011;70766;53.170;18.160;2023-07-29T04:58:31;10.40;;;8.30;;
81298;SDS011;70766;53.170;18.160;2023-07-29T05:01:03;10.00;;;7.70;;
81298;SDS011;70766;53.170;18.160;2023-07-29T05:03:32;9.50;;;7.10;;
81298;SDS011;70766;53.170;18.160;2023-07-29T05:06:00;9.90;;;7.30;;
81298;SDS011;70766;53.170;18.160;2023-07-29T05:08:29;8.90;;;7.10;;
81298;SDS011;70766;53.170;18.160;2023-07-29T05:10:57;8.10;;;7.20;;
81298;SDS011;70766;53.170;18.160;2023-07-29T05:13:25;10.10;;;7.60;;
81298;SDS011;70766;53.170;18.160;2023-07-29T05:15:53;8.40;;;7.40;;
81298;SDS011;70766;53.170;18.160;2023-07-29T05:18:22;11.10;;;7.00;;
81298;SDS011;70766;53.170;18.160;2023-07-29T05:20:51;7.90;;;7.00;;
81298;SDS011;70766;53.170;18.160;2023-07-29T05:23:19;9.80;;;6.70;;
81298;SDS011;70766;53.170;18.160;2023-07-29T05:25:48;8.40;;;6.80;;
81298;SDS011;70766;53.170;18.160;2023-07-29T05:28:16;7.30;;;5.90;;
81298;SDS011;70766;53.170;18.160;2023-07-29T05:30:44;10.50;;;6.30;;
81298;SDS011;70766;53.170;18.160;2023-07-29T05:33:12;7.30;;;5.50;;
81298;SDS011;70766;53.170;18.160;2023-07-29T05:35:40;7.60;;;5.40;;
81298;SDS011;70766;53.170;18.160;2023-07-29T05:38:08;9.20;;;6.60;;
81298;SDS011;70766;53.170;18.160;2023-07-29T05:40:37;8.00;;;6.80;;
81298;SDS011;70766;53.170;18.160;2023-07-29T05:43:05;8.70;;;5.90;;
81298;SDS011;70766;53.170;18.160;2023-07-29T05:45:33;8.70;;;6.50;;
81298;SDS011;70766;53.170;18.160;2023-07-29T05:48:02;7.80;;;5.70;;
81298;SDS011;70766;53.170;18.160;2023-07-29T05:50:30;7.80;;;6.30;;
81298;SDS011;70766;53.170;18.160;2023-07-29T05:52:58;7.00;;;5.80;;
81298;SDS011;70766;53.170;18.160;2023-07-29T05:55:26;8.20;;;6.30;;
81298;SDS011;70766;53.170;18.160;2023-07-29T05:57:55;7.50;;;6.00;;
81298;SDS011;70766;53.170;18.160;2023-07-29T06:00:25;8.40;;;5.90;;
81298;SDS011;70766;53.170;18.160;2023-07-29T06:02:54;8.70;;;6.30;;
81298;SDS011;70766;53.170;18.160;2023-07-29T06:05:22;7.10;;;5.70;;
81298;SDS011;70766;53.170;18.160;2023-07-29T06:07:52;6.80;;;5.60;;
81298;SDS011;70766;53.170;18.160;2023-07-29T06:10:20;7.30;;;5.50;;
81298;SDS011;70766;53.170;18.160;2023-07-29T06:12:49;8.20;;;6.10;;
81298;SDS011;70766;53.170;18.160;2023-07-29T06:15:18;7.40;;;5.30;;
81298;SDS011;70766;53.170;18.160;2023-07-29T06:17:50;6.30;;;4.50;;
81298;SDS011;70766;53.170;18.160;2023-07-29T06:20:19;6.30;;;4.60;;
81298;SDS011;70766;53.170;18.160;2023-07-29T06:22:47;9.20;;;5.00;;
81298;SDS011;70766;53.170;18.160;2023-07-29T06:25:15;8.50;;;5.10;;
81298;SDS011;70766;53.170;18.160;2023-07-29T06:27:43;6.90;;;5.00;;
81298;SDS011;70766;53.170;18.160;2023-07-29T06:30:11;8.60;;;5.40;;
81298;SDS011;70766;53.170;18.160;2023-07-29T06:32:40;8.50;;;5.20;;
81298;SDS011;70766;53.170;18.160;2023-07-29T06:35:08;6.30;;;5.50;;
81298;SDS011;70766;53.170;18.160;2023-07-29T06:37:36;7.50;;;5.30;;
81298;SDS011;70766;53.170;18.160;2023-07-29T06:40:04;6.50;;;4.70;;
81298;SDS011;70766;53.170;18.160;2023-07-29T06:42:33;5.30;;;4.20;;
81298;SDS011;70766;53.170;18.160;2023-07-29T06:45:01;5.90;;;4.80;;
81298;SDS011;70766;53.170;18.160;2023-07-29T06:47:29;6.20;;;4.50;;
81298;SDS011;70766;53.170;18.160;2023-07-29T06:49:57;5.70;;;5.00;;
81298;SDS011;70766;53.170;18.160;2023-07-29T06:52:25;6.20;;;5.50;;
81298;SDS011;70766;53.170;18.160;2023-07-29T06:54:53;6.30;;;5.30;;
81298;SDS011;70766;53.170;18.160;2023-07-29T06:57:21;6.80;;;4.60;;
81298;SDS011;70766;53.170;18.160;2023-07-29T06:59:49;7.00;;;4.30;;
81298;SDS011;70766;53.170;18.160;2023-07-29T07:02:17;7.50;;;4.50;;
81298;SDS011;70766;53.170;18.160;2023-07-29T07:04:45;5.30;;;4.00;;
81298;SDS011;70766;53.170;18.160;2023-07-29T07:07:13;4.50;;;3.80;;
81298;SDS011;70766;53.170;18.160;2023-07-29T07:09:43;5.00;;;3.60;;
81298;SDS011;70766;53.170;18.160;2023-07-29T07:12:11;6.30;;;3.70;;
81298;SDS011;70766;53.170;18.160;2023-07-29T07:14:39;4.90;;;3.60;;
81298;SDS011;70766;53.170;18.160;2023-07-29T07:17:07;6.10;;;3.30;;
81298;SDS011;70766;53.170;18.160;2023-07-29T07:19:40;3.90;;;3.20;;
81298;SDS011;70766;53.170;18.160;2023-07-29T07:22:08;4.80;;;3.50;;
81298;SDS011;70766;53.170;18.160;2023-07-29T07:24:36;6.00;;;3.70;;
81298;SDS011;70766;53.170;18.160;2023-07-29T07:27:04;4.60;;;3.30;;
81298;SDS011;70766;53.170;18.160;2023-07-29T07:29:32;4.60;;;3.90;;
81298;SDS011;70766;53.170;18.160;2023-07-29T07:32:00;3.90;;;3.40;;
81298;SDS011;70766;53.170;18.160;2023-07-29T07:34:28;5.00;;;3.30;;
81298;SDS011;70766;53.170;18.160;2023-07-29T07:36:56;4.40;;;3.20;;
81298;SDS011;70766;53.170;18.160;2023-07-29T07:39:25;4.00;;;3.30;;
81298;SDS011;70766;53.170;18.160;2023-07-29T07:41:52;4.20;;;3.70;;
81298;SDS011;70766;53.170;18.160;2023-07-29T07:44:21;3.50;;;3.10;;
81298;SDS011;70766;53.170;18.160;2023-07-29T07:46:49;3.40;;;3.10;;
81298;SDS011;70766;53.170;18.160;2023-07-29T07:49:17;3.90;;;3.50;;
81298;SDS011;70766;53.170;18.160;2023-07-29T07:51:45;4.40;;;3.70;;
81298;SDS011;70766;53.170;18.160;2023-07-29T07:54:14;4.00;;;3.40;;
81298;SDS011;70766;53.170;18.160;2023-07-29T07:56:42;4.50;;;3.00;;
81298;SDS011;70766;53.170;18.160;2023-07-29T07:59:10;3.30;;;2.70;;
81298;SDS011;70766;53.170;18.160;2023-07-29T08:01:40;3.30;;;2.70;;
81298;SDS011;70766;53.170;18.160;2023-07-29T08:04:08;5.70;;;2.80;;
81298;SDS011;70766;53.170;18.160;2023-07-29T08:06:36;4.20;;;2.80;;
81298;SDS011;70766;53.170;18.160;2023-07-29T08:09:05;3.40;;;2.90;;
81298;SDS011;70766;53.170;18.160;2023-07-29T08:11:33;3.90;;;2.40;;
81298;SDS011;70766;53.170;18.160;2023-07-29T08:14:01;6.20;;;2.70;;
81298;SDS011;70766;53.170;18.160;2023-07-29T08:16:29;3.50;;;3.10;;
81298;SDS011;70766;53.170;18.160;2023-07-29T08:18:57;3.40;;;2.80;;
81298;SDS011;70766;53.170;18.160;2023-07-29T08:21:26;4.80;;;3.00;;
81298;SDS011;70766;53.170;18.160;2023-07-29T08:23:54;3.40;;;2.50;;
81298;SDS011;70766;53.170;18.160;2023-07-29T08:26:22;3.50;;;2.70;;
81298;SDS011;70766;53.170;18.160;2023-07-29T08:28:50;3.20;;;2.60;;
81298;SDS011;70766;53.170;18.160;2023-07-29T08:31:21;2.60;;;2.40;;
81298;SDS011;70766;53.170;18.160;2023-07-29T08:33:53;2.90;;;2.50;;
81298;SDS011;70766;53.170;18.160;2023-07-29T08:36:22;3.30;;;2.70;;
81298;SDS011;70766;53.170;18.160;2023-07-29T08:38:51;3.40;;;2.70;;
81298;SDS011;70766;53.170;18.160;2023-07-29T08:44:20;3.40;;;2.70;;
81298;SDS011;70766;53.170;18.160;2023-07-29T08:46:52;3.00;;;2.50;;
81298;SDS011;70766;53.170;18.160;2023-07-29T08:49:22;4.20;;;2.20;;
81298;SDS011;70766;53.170;18.160;2023-07-29T08:51:53;3.80;;;2.60;;
81298;SDS011;70766;53.170;18.160;2023-07-29T08:54:22;4.00;;;2.40;;
81298;SDS011;70766;53.170;18.160;2023-07-29T08:56:50;3.00;;;2.50;;
81298;SDS011;70766;53.170;18.160;2023-07-29T08:59:19;2.60;;;2.20;;
81298;SDS011;70766;53.170;18.160;2023-07-29T09:01:49;3.20;;;2.50;;
81298;SDS011;70766;53.170;18.160;2023-07-29T09:04:18;5.20;;;2.50;;
81298;SDS011;70766;53.170;18.160;2023-07-29T09:06:47;5.10;;;2.60;;
81298;SDS011;70766;53.170;18.160;2023-07-29T09:09:18;3.00;;;2.60;;
81298;SDS011;70766;53.170;18.160;2023-07-29T09:11:47;3.10;;;2.50;;
81298;SDS011;70766;53.170;18.160;2023-07-29T09:14:17;2.70;;;2.30;;
81298;SDS011;70766;53.170;18.160;2023-07-29T09:16:48;3.50;;;2.30;;
81298;SDS011;70766;53.170;18.160;2023-07-29T09:19:19;4.00;;;2.40;;
81298;SDS011;70766;53.170;18.160;2023-07-29T09:21:47;3.50;;;2.50;;
81298;SDS011;70766;53.170;18.160;2023-07-29T09:24:17;3.00;;;2.00;;
81298;SDS011;70766;53.170;18.160;2023-07-29T09:26:52;3.10;;;2.10;;
81298;SDS011;70766;53.170;18.160;2023-07-29T09:29:27;3.50;;;2.80;;
81298;SDS011;70766;53.170;18.160;2023-07-29T09:32:18;2.60;;;2.20;;
81298;SDS011;70766;53.170;18.160;2023-07-29T09:34:50;4.70;;;2.20;;
81298;SDS011;70766;53.170;18.160;2023-07-29T09:37:23;4.00;;;2.20;;
81298;SDS011;70766;53.170;18.160;2023-07-29T09:39:53;3.20;;;1.90;;
81298;SDS011;70766;53.170;18.160;2023-07-29T09:42:22;3.10;;;2.10;;
81298;SDS011;70766;53.170;18.160;2023-07-29T09:44:51;3.30;;;2.20;;
81298;SDS011;70766;53.170;18.160;2023-07-29T09:49:50;3.60;;;2.10;;
81298;SDS011;70766;53.170;18.160;2023-07-29T09:52:22;3.60;;;2.00;;
81298;SDS011;70766;53.170;18.160;2023-07-29T09:54:51;3.90;;;2.10;;
81298;SDS011;70766;53.170;18.160;2023-07-29T09:57:20;3.60;;;2.20;;
81298;SDS011;70766;53.170;18.160;2023-07-29T09:59:57;4.50;;;2.20;;
81298;SDS011;70766;53.170;18.160;2023-07-29T10:02:25;6.60;;;2.20;;
81298;SDS011;70766;53.170;18.160;2023-07-29T10:04:56;2.70;;;2.00;;
81298;SDS011;70766;53.170;18.160;2023-07-29T10:07:27;3.30;;;2.30;;
81298;SDS011;70766;53.170;18.160;2023-07-29T10:09:55;2.40;;;2.00;;
81298;SDS011;70766;53.170;18.160;2023-07-29T10:12:25;4.50;;;2.30;;
81298;SDS011;70766;53.170;18.160;2023-07-29T10:14:57;2.90;;;2.00;;
81298;SDS011;70766;53.170;18.160;2023-07-29T10:17:28;4.30;;;2.00;;
81298;SDS011;70766;53.170;18.160;2023-07-29T10:19:57;3.40;;;2.00;;
81298;SDS011;70766;53.170;18.160;2023-07-29T10:22:28;2.90;;;2.10;;
81298;SDS011;70766;53.170;18.160;2023-07-29T10:25:03;5.90;;;2.40;;
81298;SDS011;70766;53.170;18.160;2023-07-29T10:27:43;2.80;;;2.00;;
81298;SDS011;70766;53.170;18.160;2023-07-29T10:30:11;3.50;;;2.20;;
81298;SDS011;70766;53.170;18.160;2023-07-29T10:32:42;3.30;;;2.30;;
81298;SDS011;70766;53.170;18.160;2023-07-29T10:35:13;2.70;;;2.30;;
81298;SDS011;70766;53.170;18.160;2023-07-29T10:37:41;4.80;;;2.20;;
81298;SDS011;70766;53.170;18.160;2023-07-29T10:40:13;2.20;;;2.00;;
81298;SDS011;70766;53.170;18.160;2023-07-29T10:42:58;2.50;;;2.00;;
81298;SDS011;70766;53.170;18.160;2023-07-29T10:45:38;3.10;;;2.20;;
81298;SDS011;70766;53.170;18.160;2023-07-29T10:48:11;2.40;;;2.10;;
81298;SDS011;70766;53.170;18.160;2023-07-29T10:50:40;2.00;;;1.80;;
81298;SDS011;70766;53.170;18.160;2023-07-29T10:53:08;3.80;;;1.80;;
81298;SDS011;70766;53.170;18.160;2023-07-29T10:55:36;2.70;;;1.70;;
81298;SDS011;70766;53.170;18.160;2023-07-29T11:00:43;4.80;;;2.00;;
81298;SDS011;70766;53.170;18.160;2023-07-29T11:03:13;2.40;;;2.10;;
81298;SDS011;70766;53.170;18.160;2023-07-29T11:10:57;1.80;;;1.70;;
81298;SDS011;70766;53.170;18.160;2023-07-29T11:13:35;2.60;;;2.00;;
81298;SDS011;70766;53.170;18.160;2023-07-29T11:16:04;1.80;;;1.60;;
81298;SDS011;70766;53.170;18.160;2023-07-29T11:18:34;3.20;;;1.70;;
81298;SDS011;70766;53.170;18.160;2023-07-29T11:21:03;4.90;;;1.70;;
81298;SDS011;70766;53.170;18.160;2023-07-29T11:23:33;6.30;;;1.50;;
81298;SDS011;70766;53.170;18.160;2023-07-29T11:26:03;2.10;;;1.90;;
81298;SDS011;70766;53.170;18.160;2023-07-29T11:28:38;2.50;;;1.90;;
81298;SDS011;70766;53.170;18.160;2023-07-29T11:31:07;1.90;;;1.70;;
81298;SDS011;70766;53.170;18.160;2023-07-29T11:33:38;3.00;;;1.80;;
81298;SDS011;70766;53.170;18.160;2023-07-29T11:36:16;3.50;;;2.00;;
81298;SDS011;70766;53.170;18.160;2023-07-29T11:38:47;3.00;;;1.50;;
81298;SDS011;70766;53.170;18.160;2023-07-29T11:41:18;2.80;;;1.70;;
81298;SDS011;70766;53.170;18.160;2023-07-29T11:43:48;2.20;;;1.80;;
81298;SDS011;70766;53.170;18.160;2023-07-29T11:46:20;2.00;;;1.70;;
81298;SDS011;70766;53.170;18.160;2023-07-29T11:48:49;1.90;;;1.30;;
81298;SDS011;70766;53.170;18.160;2023-07-29T11:51:17;2.40;;;1.50;;
81298;SDS011;70766;53.170;18.160;2023-07-29T11:53:45;2.30;;;1.80;;
81298;SDS011;70766;53.170;18.160;2023-07-29T11:56:13;1.80;;;1.50;;
81298;SDS011;70766;53.170;18.160;2023-07-29T11:58:42;2.80;;;1.70;;
81298;SDS011;70766;53.170;18.160;2023-07-29T12:01:10;2.40;;;2.00;;
81298;SDS011;70766;53.170;18.160;2023-07-29T12:03:39;2.10;;;1.60;;
81298;SDS011;70766;53.170;18.160;2023-07-29T12:06:11;1.80;;;1.60;;
81298;SDS011;70766;53.170;18.160;2023-07-29T12:08:40;3.50;;;1.50;;
81298;SDS011;70766;53.170;18.160;2023-07-29T12:11:10;2.50;;;1.70;;
81298;SDS011;70766;53.170;18.160;2023-07-29T12:13:38;2.20;;;1.90;;
81298;SDS011;70766;53.170;18.160;2023-07-29T12:16:06;2.80;;;1.70;;
81298;SDS011;70766;53.170;18.160;2023-07-29T12:18:35;2.10;;;1.90;;
81298;SDS011;70766;53.170;18.160;2023-07-29T12:21:04;1.90;;;1.50;;
81298;SDS011;70766;53.170;18.160;2023-07-29T12:23:32;2.20;;;1.60;;
81298;SDS011;70766;53.170;18.160;2023-07-29T12:26:01;2.20;;;1.90;;
81298;SDS011;70766;53.170;18.160;2023-07-29T12:28:30;2.70;;;1.80;;
81298;SDS011;70766;53.170;18.160;2023-07-29T12:30:58;1.90;;;1.50;;
81298;SDS011;70766;53.170;18.160;2023-07-29T12:33:31;3.90;;;1.50;;
81298;SDS011;70766;53.170;18.160;2023-07-29T12:36:01;2.70;;;1.70;;
81298;SDS011;70766;53.170;18.160;2023-07-29T12:38:30;2.00;;;1.80;;
81298;SDS011;70766;53.170;18.160;2023-07-29T12:40:58;2.50;;;1.60;;
81298;SDS011;70766;53.170;18.160;2023-07-29T12:43:26;3.80;;;1.70;;
81298;SDS011;70766;53.170;18.160;2023-07-29T12:45:56;2.60;;;1.90;;
81298;SDS011;70766;53.170;18.160;2023-07-29T12:48:25;1.90;;;1.70;;
81298;SDS011;70766;53.170;18.160;2023-07-29T12:50:53;3.40;;;2.00;;
81298;SDS011;70766;53.170;18.160;2023-07-29T12:53:21;1.90;;;1.70;;
81298;SDS011;70766;53.170;18.160;2023-07-29T12:55:49;3.40;;;2.10;;
81298;SDS011;70766;53.170;18.160;2023-07-29T12:58:17;2.10;;;1.90;;
81298;SDS011;70766;53.170;18.160;2023-07-29T13:00:45;3.50;;;2.00;;
81298;SDS011;70766;53.170;18.160;2023-07-29T13:03:13;2.20;;;2.00;;
81298;SDS011;70766;53.170;18.160;2023-07-29T13:05:42;2.50;;;2.10;;
81298;SDS011;70766;53.170;18.160;2023-07-29T13:08:10;2.40;;;2.20;;
81298;SDS011;70766;53.170;18.160;2023-07-29T13:10:38;4.00;;;1.90;;
81298;SDS011;70766;53.170;18.160;2023-07-29T13:13:06;3.10;;;2.10;;
81298;SDS011;70766;53.170;18.160;2023-07-29T13:15:34;3.30;;;2.00;;
81298;SDS011;70766;53.170;18.160;2023-07-29T13:18:03;3.30;;;2.60;;
81298;SDS011;70766;53.170;18.160;2023-07-29T13:20:32;2.40;;;2.20;;
81298;SDS011;70766;53.170;18.160;2023-07-29T13:23:01;4.80;;;2.10;;
81298;SDS011;70766;53.170;18.160;2023-07-29T13:25:29;2.30;;;1.90;;
81298;SDS011;70766;53.170;18.160;2023-07-29T13:27:58;2.30;;;2.10;;
81298;SDS011;70766;53.170;18.160;2023-07-29T13:30:26;2.40;;;2.20;;
81298;SDS011;70766;53.170;18.160;2023-07-29T13:32:55;4.70;;;2.80;;
81298;SDS011;70766;53.170;18.160;2023-07-29T13:35:23;3.70;;;1.90;;
81298;SDS011;70766;53.170;18.160;2023-07-29T13:37:51;2.60;;;1.90;;
81298;SDS011;70766;53.170;18.160;2023-07-29T13:40:19;2.40;;;2.20;;
81298;SDS011;70766;53.170;18.160;2023-07-29T13:42:48;2.70;;;2.10;;
81298;SDS011;70766;53.170;18.160;2023-07-29T13:45:16;4.10;;;2.50;;
81298;SDS011;70766;53.170;18.160;2023-07-29T13:47:44;2.10;;;1.90;;
81298;SDS011;70766;53.170;18.160;2023-07-29T13:50:12;3.40;;;2.20;;
81298;SDS011;70766;53.170;18.160;2023-07-29T13:52:41;1.90;;;1.80;;
81298;SDS011;70766;53.170;18.160;2023-07-29T13:55:09;3.10;;;2.40;;
81298;SDS011;70766;53.170;18.160;2023-07-29T13:57:39;2.80;;;2.20;;
81298;SDS011;70766;53.170;18.160;2023-07-29T14:00:07;2.30;;;1.90;;
81298;SDS011;70766;53.170;18.160;2023-07-29T14:02:39;2.90;;;2.00;;
81298;SDS011;70766;53.170;18.160;2023-07-29T14:05:08;3.20;;;2.10;;
81298;SDS011;70766;53.170;18.160;2023-07-29T14:07:36;3.50;;;2.40;;
81298;SDS011;70766;53.170;18.160;2023-07-29T14:10:04;3.50;;;2.50;;
81298;SDS011;70766;53.170;18.160;2023-07-29T14:12:35;2.30;;;2.10;;
81298;SDS011;70766;53.170;18.160;2023-07-29T14:15:03;2.50;;;1.90;;
81298;SDS011;70766;53.170;18.160;2023-07-29T14:17:32;2.40;;;2.20;;
81298;SDS011;70766;53.170;18.160;2023-07-29T14:20:00;2.40;;;1.90;;
81298;SDS011;70766;53.170;18.160;2023-07-29T14:22:29;6.20;;;2.60;;
81298;SDS011;70766;53.170;18.160;2023-07-29T14:24:57;2.60;;;2.00;;
81298;SDS011;70766;53.170;18.160;2023-07-29T14:27:28;3.30;;;2.30;;
81298;SDS011;70766;53.170;18.160;2023-07-29T14:29:56;3.90;;;2.40;;
81298;SDS011;70766;53.170;18.160;2023-07-29T14:32:24;2.30;;;2.10;;
81298;SDS011;70766;53.170;18.160;2023-07-29T14:34:55;2.30;;;2.10;;
81298;SDS011;70766;53.170;18.160;2023-07-29T14:37:23;2.50;;;2.20;;
81298;SDS011;70766;53.170;18.160;2023-07-29T14:39:51;2.80;;;2.20;;
81298;SDS011;70766;53.170;18.160;2023-07-29T14:42:21;2.40;;;2.00;;
81298;SDS011;70766;53.170;18.160;2023-07-29T14:44:50;4.30;;;2.20;;
81298;SDS011;70766;53.170;18.160;2023-07-29T14:47:18;3.20;;;2.70;;
81298;SDS011;70766;53.170;18.160;2023-07-29T14:49:46;5.10;;;2.40;;
81298;SDS011;70766;53.170;18.160;2023-07-29T14:52:15;3.80;;;2.10;;
81298;SDS011;70766;53.170;18.160;2023-07-29T14:54:43;3.20;;;2.40;;
81298;SDS011;70766;53.170;18.160;2023-07-29T14:57:11;2.90;;;2.60;;
81298;SDS011;70766;53.170;18.160;2023-07-29T14:59:39;4.10;;;2.00;;
81298;SDS011;70766;53.170;18.160;2023-07-29T15:02:07;4.60;;;2.60;;
81298;SDS011;70766;53.170;18.160;2023-07-29T15:04:35;2.80;;;2.50;;
81298;SDS011;70766;53.170;18.160;2023-07-29T15:07:03;3.30;;;2.30;;